Mulberry, Indiana
Current Conditions -  °F | °C
As of 12:55 PM on Friday 19 Dec 2014 (Local Time) from KFKR Reporting Station
Haze Haze  
Wind Chill: 28°   Ceiling: 2400
Heat Index: 28°   Visibility: 5mi
Dew Point: 26°   Wind: 3mph
Humidity: 90%   Direction: 280°W
Pressure: 30.28"   Gusts: NA
Location:  40.34°N, 86.67°W
Report Text: KFKR 191755Z AUTO 28003KT 5SM BR BKN024 M02/M03 A3028 RMK AO2 T10201035 11020 21047
Loading
Personal Weather Stations






























Interactive Weather Map New forecast layout! Learn more

10-Day Weather Forecast

Advertisements
Track Severe Weather on mobile